Time;durP1;ratioP1;P1;durP2;ratioP2;P2;SDS_P1;SDS_P2;PMS_P1;PMS_P2;Temp;Humidity;BMP_temperature;BMP_pressure;BME280_temperature;BME280_humidity;BME280_pressure;Samples;Min_cycle;Max_cycle;Signal;HPM_P1;HPM_P2
2021/07/19 00:01:57;;;;;;;;;;;;;;;20.82;100.00;98809.75;1737013;82;20099;-70
2021/07/19 00:04:24;;;;;;;;;;;;;;;20.80;100.00;98808.50;1737349;82;21093;-70
2021/07/19 00:06:50;;;;;;;;;;;;;;;20.75;100.00;98796.70;1737150;82;20424;-70
2021/07/19 00:09:17;;;;;;;;;;;;;;;20.70;100.00;98801.55;1737463;82;20092;-70
2021/07/19 00:11:45;;;;;;;;;;;;;;;20.65;100.00;98792.23;1737088;82;20100;-70
2021/07/19 00:14:13;;;;;;;;;;;;;;;20.57;100.00;98784.39;1737105;82;20096;-70
2021/07/19 00:16:41;;;;;;;;;;;;;;;20.49;100.00;98781.97;1737328;82;20154;-70
2021/07/19 00:19:09;;;;;;;;;;;;;;;20.48;100.00;98793.20;1737517;82;20079;-70
2021/07/19 00:21:37;;;;;;;;;;;;;;;20.46;100.00;98792.77;1742086;82;20095;-70
2021/07/19 00:24:05;;;;;;;;;;;;;;;20.43;100.00;98794.23;1737305;82;20108;-70
2021/07/19 00:26:33;;;;;;;;;;;;;;;20.39;100.00;98788.43;1737202;82;20099;-70
2021/07/19 00:28:59;;;;;;;;;;;;;;;20.37;100.00;98786.61;1737597;82;21094;-70
2021/07/19 00:31:31;;;;;;;;;;;;;;;20.32;100.00;98784.89;1737253;82;20084;-70
2021/07/19 00:33:55;;;;;;;;;;;;;;;20.31;100.00;98788.19;1737582;82;20119;-70
2021/07/19 00:36:23;;;;;;;;;;;;;;;20.31;100.00;98784.09;1737333;82;20483;-70
2021/07/19 00:38:51;;;;;;;;;;;;;;;20.30;100.00;98785.22;1737614;82;20112;-70
2021/07/19 00:41:18;;;;;;;;;;;;;;;20.30;100.00;98788.52;1737194;82;21147;-70
2021/07/19 00:43:47;;;;;;;;;;;;;;;20.27;100.00;98789.19;1737037;82;20095;-70
2021/07/19 00:46:14;;;;;;;;;;;;;;;20.23;100.00;98784.97;1737308;82;20084;-70
2021/07/19 00:48:42;;;;;;;;;;;;;;;20.23;100.00;98784.97;1737711;82;20135;-70
2021/07/19 00:51:09;;;;;;;;;;;;;;;20.23;100.00;98790.41;1737063;82;20107;-70
2021/07/19 00:53:36;;;;;;;;;;;;;;;20.25;100.00;98801.78;1737516;82;21832;-70
2021/07/19 00:56:06;;;;;;;;;;;;;;;20.23;100.00;98796.44;1737144;82;20083;-70
2021/07/19 00:58:33;;;;;;;;;;;;;;;20.22;100.00;98794.28;1737543;82;20080;-70
2021/07/19 01:01:00;;;;;;;;;;;;;;;20.19;100.00;98793.60;1737259;82;20344;-70
2021/07/19 01:03:29;;;;;;;;;;;;;;;20.16;100.00;98794.83;1741929;81;20111;-70
2021/07/19 01:05:56;;;;;;;;;;;;;;;20.14;100.00;98789.73;1737165;82;20998;-70
2021/07/19 01:08:23;;;;;;;;;;;;;;;20.12;100.00;98791.98;1737134;82;20071;-70
2021/07/19 01:10:51;;;;;;;;;;;;;;;20.07;100.00;98784.03;1737236;82;20092;-70
2021/07/19 01:13:19;;;;;;;;;;;;;;;20.08;100.00;98788.33;1737309;82;20111;-70
2021/07/19 01:15:47;;;;;;;;;;;;;;;20.08;100.00;98786.97;1737331;82;20080;-70
2021/07/19 01:18:14;;;;;;;;;;;;;;;20.11;100.00;98788.47;1737525;82;21158;-70
2021/07/19 01:21:01;;;;;;;;;;;;;;;20.17;100.00;98786.33;1737132;82;20131;-70
2021/07/19 01:23:37;;;;;;;;;;;;;;;20.25;100.00;98784.07;1737245;82;20079;-70
2021/07/19 01:26:23;;;;;;;;;;;;;;;20.26;100.00;98798.48;1737109;82;20445;-68
2021/07/19 01:28:51;;;;;;;;;;;;;;;20.22;100.00;98792.92;1737491;82;20131;-68
2021/07/19 01:31:21;;;;;;;;;;;;;;;20.19;100.00;98792.81;1737167;82;21169;-68
2021/07/19 01:33:49;;;;;;;;;;;;;;;20.15;100.00;98791.88;1737346;82;20120;-68
2021/07/19 01:36:19;;;;;;;;;;;;;;;20.10;100.00;98794.25;1742022;82;20071;-69
2021/07/19 01:38:54;;;;;;;;;;;;;;;20.08;100.00;98800.59;1709633;82;20381;-69
2021/07/19 01:41:21;;;;;;;;;;;;;;;20.07;100.00;98805.82;1737145;82;20107;-69
2021/07/19 01:43:48;;;;;;;;;;;;;;;20.07;100.00;98811.27;1719211;82;21110;-68
2021/07/19 01:46:16;;;;;;;;;;;;;;;20.04;100.00;98816.00;1737072;82;20081;-69
2021/07/19 01:48:44;;;;;;;;;;;;;;;20.05;100.00;98827.94;1737262;82;20083;-69
2021/07/19 01:51:12;;;;;;;;;;;;;;;20.06;100.00;98832.81;1737198;82;20091;-69
2021/07/19 01:53:41;;;;;;;;;;;;;;;20.07;100.00;98834.42;1737877;81;20111;-69
2021/07/19 01:56:08;;;;;;;;;;;;;;;20.09;100.00;98828.08;1737047;82;21116;-68
2021/07/19 01:58:34;;;;;;;;;;;;;;;20.11;100.00;98825.25;1737212;82;20087;-69
2021/07/19 02:01:05;;;;;;;;;;;;;;;20.11;100.00;98828.52;1737306;82;20092;-69
2021/07/19 02:03:31;;;;;;;;;;;;;;;20.08;100.00;98831.34;1737443;82;20119;-69
2021/07/19 02:05:59;;;;;;;;;;;;;;;20.08;100.00;98825.11;1737325;82;20119;-69
2021/07/19 02:08:26;;;;;;;;;;;;;;;20.09;100.00;98826.72;1737392;82;21777;-69
2021/07/19 02:11:00;;;;;;;;;;;;;;;20.10;100.00;98826.36;1737010;82;20149;-69
2021/07/19 02:13:30;;;;;;;;;;;;;;;20.15;100.00;98829.45;1737562;82;20079;-69
2021/07/19 02:15:56;;;;;;;;;;;;;;;20.17;100.00;98834.00;1737233;82;20107;-69
2021/07/19 02:18:24;;;;;;;;;;;;;;;20.18;100.00;98845.13;1737305;82;20095;-69
2021/07/19 02:20:53;;;;;;;;;;;;;;;20.19;100.00;98843.22;1737010;82;21105;-69
2021/07/19 02:23:20;;;;;;;;;;;;;;;20.16;100.00;98841.92;1737296;82;20131;-68
2021/07/19 02:26:01;;;;;;;;;;;;;;;20.15;100.00;98847.16;1737154;82;20103;-68
2021/07/19 02:28:32;;;;;;;;;;;;;;;20.18;100.00;98860.67;1737290;82;20166;-70
2021/07/19 02:31:00;;;;;;;;;;;;;;;20.23;100.00;98851.72;1741969;82;20087;-69
2021/07/19 02:33:27;;;;;;;;;;;;;;;20.32;100.00;98845.63;1741982;82;21100;-69
2021/07/19 02:36:04;;;;;;;;;;;;;;;20.41;100.00;98849.65;1737215;82;20373;-69
2021/07/19 02:38:34;;;;;;;;;;;;;;;20.49;100.00;98851.48;1737244;82;20084;-69
2021/07/19 02:41:05;;;;;;;;;;;;;;;20.59;100.00;98857.67;1736205;82;20147;-69
2021/07/19 02:43:32;;;;;;;;;;;;;;;20.67;100.00;98862.22;1718927;82;20099;-69
2021/07/19 02:45:59;;;;;;;;;;;;;;;20.71;100.00;98850.31;1737096;82;22297;-69
2021/07/19 02:48:29;;;;;;;;;;;;;;;20.78;100.00;98852.48;1737373;82;20103;-68
2021/07/19 02:50:58;;;;;;;;;;;;;;;20.82;100.00;98852.59;1737158;82;20083;-69
2021/07/19 02:53:28;;;;;;;;;;;;;;;20.86;100.00;98855.67;1737007;82;20084;-69
2021/07/19 02:55:55;;;;;;;;;;;;;;;20.92;100.00;98855.69;1718738;82;37175;-69
2021/07/19 02:58:22;;;;;;;;;;;;;;;20.95;100.00;98857.73;1737317;82;21741;-68
2021/07/19 03:00:50;;;;;;;;;;;;;;;20.98;100.00;98857.63;1737405;82;20154;-69
2021/07/19 03:03:28;;;;;;;;;;;;;;;21.03;100.00;98857.39;1737000;82;20111;-69
2021/07/19 03:06:05;;;;;;;;;;;;;;;21.06;100.00;98857.28;1736829;82;20127;-69
2021/07/19 03:08:34;;;;;;;;;;;;;;;21.10;100.00;98857.63;1737067;82;20155;-69
2021/07/19 03:11:09;;;;;;;;;;;;;;;21.14;100.00;98856.36;1737118;82;21104;-69
2021/07/19 03:13:36;;;;;;;;;;;;;;;21.20;100.00;98854.44;1737230;82;20095;-69
2021/07/19 03:16:03;;;;;;;;;;;;;;;21.27;100.00;98857.19;1737184;82;20123;-69
2021/07/19 03:18:32;;;;;;;;;;;;;;;21.31;100.00;98857.52;1737470;82;20114;-69
2021/07/19 03:20:59;;;;;;;;;;;;;;;21.31;100.00;98857.52;1737019;82;20092;-69
2021/07/19 03:23:27;;;;;;;;;;;;;;;21.33;100.00;98862.62;1737614;82;21087;-70
2021/07/19 03:25:54;;;;;;;;;;;;;;;21.36;100.00;98858.66;1737031;82;20079;-69
2021/07/19 03:28:22;;;;;;;;;;;;;;;21.36;100.00;98868.21;1737125;82;20075;-69
2021/07/19 03:30:50;;;;;;;;;;;;;;;21.34;100.00;98866.39;1737071;82;20091;-69
2021/07/19 03:33:17;;;;;;;;;;;;;;;21.31;100.00;98867.63;1737335;82;20413;-68
2021/07/19 03:35:43;;;;;;;;;;;;;;;21.25;100.00;98873.09;1737181;82;21182;-69
2021/07/19 03:38:16;;;;;;;;;;;;;;;21.22;100.00;98879.25;1737015;82;20640;-69
2021/07/19 03:40:54;;;;;;;;;;;;;;;21.22;100.00;98877.31;1736326;81;20092;-69
2021/07/19 03:43:22;;;;;;;;;;;;;;;21.22;100.00;98877.31;1737190;82;20091;-70
2021/07/19 03:45:50;;;;;;;;;;;;;;;21.22;100.00;98874.58;1737284;82;20078;-69
2021/07/19 03:48:19;;;;;;;;;;;;;;;21.27;100.00;98868.09;1737150;82;21101;-70
2021/07/19 03:50:45;;;;;;;;;;;;;;;21.31;100.00;98869.81;1737138;82;20425;-69
2021/07/19 03:53:13;;;;;;;;;;;;;;;21.33;100.00;98870.23;1742979;81;20091;-69
2021/07/19 03:55:41;;;;;;;;;;;;;;;21.32;100.00;98872.75;1745007;82;20134;-69
2021/07/19 03:58:10;;;;;;;;;;;;;;;21.35;100.00;98876.16;1745308;82;20079;-69
2021/07/19 04:00:38;;;;;;;;;;;;;;;21.38;100.00;98876.83;1744990;81;21705;-69
2021/07/19 04:04:10;;;;;;;;;;;;;;;21.42;100.00;98868.01;1745174;81;20397;-69
2021/07/19 04:05:50;;;;;;;;;;;;;;;21.47;100.00;98865.05;1713566;82;20385;-70
2021/07/19 04:08:17;;;;;;;;;;;;;;;21.57;100.00;98857.17;1744926;82;20103;-69
2021/07/19 04:10:44;;;;;;;;;;;;;;;21.62;100.00;98858.88;1744917;82;20115;-69
2021/07/19 04:13:10;;;;;;;;;;;;;;;21.74;100.00;98851.23;1744926;81;21768;-69
2021/07/19 04:15:42;;;;;;;;;;;;;;;21.88;100.00;98853.02;1744900;82;20083;-68
2021/07/19 04:18:07;;;;;;;;;;;;;;;21.98;100.00;98857.98;1745096;82;20424;-69
2021/07/19 04:20:37;;;;;;;;;;;;;;;22.12;100.00;98858.16;1745233;81;20071;-68
2021/07/19 04:23:03;;;;;;;;;;;;;;;22.22;100.00;98864.52;1745258;82;20115;-69
2021/07/19 04:25:30;;;;;;;;;;;;;;;22.37;100.00;98858.91;1744906;82;21119;-69
2021/07/19 04:27:57;;;;;;;;;;;;;;;22.55;100.00;98858.79;1744923;82;20139;-69
2021/07/19 04:30:34;;;;;;;;;;;;;;;22.77;100.00;98866.19;1744855;81;20083;-69
2021/07/19 04:33:02;;;;;;;;;;;;;;;23.01;100.00;98863.90;1744718;82;20106;-69
2021/07/19 04:35:29;;;;;;;;;;;;;;;23.05;100.00;98855.19;1745007;82;20405;-69
2021/07/19 04:37:56;;;;;;;;;;;;;;;23.14;100.00;98858.54;1745252;82;21703;-69
2021/07/19 04:40:24;;;;;;;;;;;;;;;23.32;100.00;98859.77;1744888;82;20095;-69
2021/07/19 04:42:50;;;;;;;;;;;;;;;23.36;100.00;98863.16;1745158;82;20154;-69
2021/07/19 04:45:18;;;;;;;;;;;;;;;23.48;100.00;98867.16;1744724;82;20095;-68
2021/07/19 04:47:46;;;;;;;;;;;;;;;23.51;100.00;98880.13;1744850;81;20103;-69
2021/07/19 04:50:14;;;;;;;;;;;;;;;23.61;100.00;98885.05;1744720;82;21130;-69
2021/07/19 04:52:43;;;;;;;;;;;;;;;23.78;100.00;98895.44;1743556;82;20480;-69
2021/07/19 04:55:11;;;;;;;;;;;;;;;24.00;100.00;98902.17;1739763;82;20084;-69
2021/07/19 04:57:39;;;;;;;;;;;;;;;24.23;100.00;98909.09;1739799;82;21882;-70
2021/07/19 05:00:06;;;;;;;;;;;;;;;24.39;100.00;98905.72;1739719;82;20107;-70
2021/07/19 05:02:34;;;;;;;;;;;;;;;24.53;100.00;98915.62;1739775;82;21870;-69
2021/07/19 05:05:01;;;;;;;;;;;;;;;24.39;100.00;98911.98;1739671;82;20151;-70
2021/07/19 05:07:30;;;;;;;;;;;;;;;24.50;100.00;98912.24;1740096;82;20393;-70
2021/07/19 05:09:55;;;;;;;;;;;;;;;24.64;100.00;98913.66;1721412;82;20095;-70
2021/07/19 05:12:22;;;;;;;;;;;;;;;24.52;100.00;98914.05;1739880;82;20083;-69
2021/07/19 05:14:49;;;;;;;;;;;;;;;24.31;100.00;98911.64;1739651;82;21111;-69
2021/07/19 05:17:15;;;;;;;;;;;;;;;24.35;100.00;98913.88;1739850;82;20079;-70
2021/07/19 05:19:43;;;;;;;;;;;;;;;24.57;100.00;98917.88;1739884;82;20115;-69
2021/07/19 05:22:13;;;;;;;;;;;;;;;24.74;100.00;98909.76;1739805;82;20538;-70
2021/07/19 05:24:40;;;;;;;;;;;;;;;24.83;100.00;98915.58;1739893;82;20068;-69
2021/07/19 05:27:08;;;;;;;;;;;;;;;24.94;100.00;98913.80;1739899;82;21100;-70
2021/07/19 05:29:34;;;;;;;;;;;;;;;25.00;100.00;98916.47;1740091;82;20114;-70
2021/07/19 05:32:03;;;;;;;;;;;;;;;24.85;100.00;98928.37;1745806;82;20079;-70
2021/07/19 05:34:29;;;;;;;;;;;;;;;24.99;100.00;98934.12;1735969;82;20202;-70
2021/07/19 05:36:56;;;;;;;;;;;;;;;25.18;100.00;98927.78;1711738;83;20081;-69
2021/07/19 05:39:23;;;;;;;;;;;;;;;25.37;100.00;98927.71;1753527;81;21127;-70
2021/07/19 05:41:49;;;;;;;;;;;;;;;25.70;100.00;98927.64;1757671;81;20091;-70
2021/07/19 05:44:16;;;;;;;;;;;;;;;25.72;100.00;98932.75;1725084;82;20085;-70
2021/07/19 05:46:42;;;;;;;;;;;;;;;25.62;100.00;98932.80;1703525;83;20489;-70
2021/07/19 05:49:09;;;;;;;;;;;;;;;25.64;100.00;98934.02;1724356;83;20077;-70
2021/07/19 05:51:35;;;;;;;;;;;;;;;25.49;100.00;98938.30;1724616;83;21541;-70
2021/07/19 06:00:42;;;;;;;;;;;;;;;25.37;100.00;98926.34;1566176;90;20447;-69
2021/07/19 06:03:09;;;;;;;;;;;;;;;25.56;100.00;98930.17;1566126;90;20106;-69
2021/07/19 06:05:38;;;;;;;;;;;;;;;25.76;100.00;98928.11;1566255;90;20710;-69
2021/07/19 06:08:07;;;;;;;;;;;;;;;25.72;100.00;98940.99;1565621;90;20195;-70
2021/07/19 06:11:06;;;;;;;;;;;;;;;25.76;100.00;98948.72;1560538;90;20134;-69
2021/07/19 06:13:33;;;;;;;;;;;;;;;25.82;100.00;98954.91;1559675;90;20472;-69
2021/07/19 06:16:04;;;;;;;;;;;;;;;26.26;100.00;98959.87;1559253;90;20186;-69
2021/07/19 06:18:31;;;;;;;;;;;;;;;26.78;100.00;98966.17;1559321;90;21103;-69
2021/07/19 06:21:01;;;;;;;;;;;;;;;27.39;100.00;98971.74;1559184;90;20165;-69
2021/07/19 06:23:53;;;;;;;;;;;;;;;27.46;99.60;98980.04;1559408;90;20441;-70
2021/07/19 06:26:31;;;;;;;;;;;;;;;27.48;96.97;98987.34;1569350;90;20596;-70
2021/07/19 06:28:58;;;;;;;;;;;;;;;27.57;95.24;98985.06;1573792;89;20218;-69
2021/07/19 06:31:24;;;;;;;;;;;;;;;27.56;94.52;98986.81;1577930;89;21149;-69
2021/07/19 06:33:51;;;;;;;;;;;;;;;27.68;92.94;98987.11;1605513;87;20425;-70
2021/07/19 06:36:20;;;;;;;;;;;;;;;27.47;93.81;98991.88;1656927;83;20245;-69
2021/07/19 06:38:47;;;;;;;;;;;;;;;27.02;96.58;98997.34;1705842;83;20152;-70
2021/07/19 06:41:14;;;;;;;;;;;;;;;26.93;100.00;99012.77;1730035;83;20157;-69
2021/07/19 06:43:41;;;;;;;;;;;;;;;26.69;100.00;99024.29;1731261;83;21504;-68
2021/07/19 06:46:09;;;;;;;;;;;;;;;26.22;100.00;99031.91;1731255;83;20161;-69
2021/07/19 06:48:35;;;;;;;;;;;;;;;25.50;100.00;99051.14;1731458;83;20144;-70
2021/07/19 06:51:02;;;;;;;;;;;;;;;25.11;100.00;99051.19;1731629;82;20425;-69
2021/07/19 06:53:31;;;;;;;;;;;;;;;24.20;100.00;99046.92;1719201;82;20184;-68
2021/07/19 06:55:57;;;;;;;;;;;;;;;23.53;100.00;99032.58;1715644;83;21502;-70
2021/07/19 06:58:24;;;;;;;;;;;;;;;23.02;100.00;99044.73;1701931;84;20095;-71
2021/07/19 07:00:51;;;;;;;;;;;;;;;23.00;100.00;99042.91;1682898;83;20145;-70
2021/07/19 07:03:19;;;;;;;;;;;;;;;22.81;100.00;99024.40;1586127;90;20417;-71
2021/07/19 07:06:14;;;;;;;;;;;;;;;22.52;100.00;99007.16;1610222;88;20209;-71
2021/07/19 07:12:08;;;;;;;;;;;;;;;22.93;100.00;98994.25;1583565;90;20178;-70
2021/07/19 07:14:35;;;;;;;;;;;;;;;23.06;100.00;98988.16;1563392;90;20157;-68
2021/07/19 07:17:03;;;;;;;;;;;;;;;23.14;100.00;98983.09;1583879;90;20108;-69
2021/07/19 07:19:30;;;;;;;;;;;;;;;23.16;100.00;98966.31;1585591;90;20431;-69
2021/07/19 07:22:32;;;;;;;;;;;;;;;23.08;100.00;98953.81;1535473;93;20469;-71
2021/07/19 07:29:12;;;;;;;;;;;;;;;23.09;100.00;98938.19;1489576;96;20123;-71
2021/07/19 07:34:52;;;;;;;;;;;;;;;23.10;100.00;98928.27;1492954;96;20227;-72
2021/07/19 07:37:23;;;;;;;;;;;;;;;23.16;100.00;98941.69;1503955;94;21785;-71
2021/07/19 07:40:19;;;;;;;;;;;;;;;23.13;100.00;98958.23;1507148;93;20174;-70
2021/07/19 07:43:35;;;;;;;;;;;;;;;22.97;100.00;98989.64;1486778;95;20137;-71
2021/07/19 07:46:49;;;;;;;;;;;;;;;22.71;100.00;98994.23;1400218;102;20458;-71
2021/07/19 07:56:41;;;;;;;;;;;;;;;22.27;100.00;98981.84;1427318;99;20189;-73
2021/07/19 08:20:53;;;;;;;;;;;;;;;21.62;100.00;98948.41;1419418;99;20154;-73
2021/07/19 08:27:12;;;;;;;;;;;;;;;21.54;100.00;98961.62;1532335;93;20110;-72
2021/07/19 08:29:39;;;;;;;;;;;;;;;21.53;100.00;98972.30;1539489;93;20481;-69
2021/07/19 08:32:06;;;;;;;;;;;;;;;21.32;100.00;98979.77;1570411;87;20103;-71
2021/07/19 08:34:48;;;;;;;;;;;;;;;21.17;100.00;98964.86;1601146;88;20412;-69
2021/07/19 10:09:38;;;;;;;;;;;;;;;21.20;100.00;98982.70;1727428;83;20096;-71
2021/07/19 10:12:07;;;;;;;;;;;;;;;21.55;100.00;98983.67;1684669;83;21370;-72
2021/07/19 10:30:41;;;;;;;;;;;;;;;23.62;100.00;99007.19;1570345;89;20192;-69
2021/07/19 10:33:17;;;;;;;;;;;;;;;24.15;100.00;99019.20;1570090;89;21038;-70
2021/07/19 10:36:10;;;;;;;;;;;;;;;24.08;100.00;99021.77;1513928;93;20465;-70
2021/07/19 10:38:40;;;;;;;;;;;;;;;23.75;100.00;99015.55;1457078;98;21103;-70
2021/07/19 10:41:07;;;;;;;;;;;;;;;23.62;100.00;99017.35;1508383;93;20167;-70
2021/07/19 10:43:34;;;;;;;;;;;;;;;23.68;100.00;99001.64;1508306;95;21148;-70
2021/07/19 10:46:10;;;;;;;;;;;;;;;24.08;100.00;99002.59;1508229;94;20185;-70
2021/07/19 10:48:36;;;;;;;;;;;;;;;24.57;100.00;98978.22;1508741;95;20134;-70
2021/07/19 10:51:17;;;;;;;;;;;;;;;25.10;100.00;98984.50;1508569;95;20202;-70
2021/07/19 10:53:44;;;;;;;;;;;;;;;24.99;100.00;98973.34;1567322;91;20103;-70
2021/07/19 10:56:12;;;;;;;;;;;;;;;25.10;100.00;98967.23;1564426;91;20953;-70
2021/07/19 10:58:48;;;;;;;;;;;;;;;25.13;100.00;98974.16;1534285;93;20470;-70
2021/07/19 11:01:19;;;;;;;;;;;;;;;25.11;100.00;98966.06;1553395;91;20152;-71
2021/07/19 11:03:46;;;;;;;;;;;;;;;25.30;100.00;98963.30;1553387;92;20159;-71
2021/07/19 11:07:01;;;;;;;;;;;;;;;25.72;100.00;98965.14;1552982;92;20472;-70
2021/07/19 11:09:44;;;;;;;;;;;;;;;26.35;100.00;98969.78;1564560;91;21298;-71
2021/07/19 11:12:16;;;;;;;;;;;;;;;26.64;100.00;98973.70;1607896;87;20169;-71
2021/07/19 11:14:48;;;;;;;;;;;;;;;26.91;100.00;98986.78;1691327;83;20402;-71
2021/07/19 11:17:20;;;;;;;;;;;;;;;27.10;100.00;98984.43;1714163;83;20148;-70
2021/07/19 11:19:49;;;;;;;;;;;;;;;26.96;100.00;98985.06;1694059;84;20401;-69
2021/07/19 11:22:26;;;;;;;;;;;;;;;26.93;100.00;98992.12;1693125;84;21808;-70
2021/07/19 11:25:00;;;;;;;;;;;;;;;27.09;100.00;98999.36;1693231;84;20095;-71
2021/07/19 11:27:31;;;;;;;;;;;;;;;27.42;91.77;99000.50;1690857;84;20083;-71
2021/07/19 11:30:03;;;;;;;;;;;;;;;27.84;84.62;99000.66;1666232;85;20098;-71
2021/07/19 11:32:30;;;;;;;;;;;;;;;27.92;84.43;98996.17;1712027;83;20082;-71
2021/07/19 11:35:16;;;;;;;;;;;;;;;27.95;80.42;98985.77;1691854;83;21309;-71
2021/07/19 11:37:45;;;;;;;;;;;;;;;28.12;83.51;98982.11;1714679;83;20432;-71
2021/07/19 11:40:14;;;;;;;;;;;;;;;27.97;77.88;98973.75;1715810;83;20199;-70
2021/07/19 11:42:55;;;;;;;;;;;;;;;27.76;78.15;98966.70;1676710;84;20480;-71
2021/07/19 11:45:23;;;;;;;;;;;;;;;27.99;78.82;98961.75;1698317;83;20123;-70
2021/07/19 11:47:52;;;;;;;;;;;;;;;27.78;79.44;98961.02;1698026;83;21131;-70
2021/07/19 11:50:20;;;;;;;;;;;;;;;27.71;79.41;98958.80;1716417;82;20092;-71
2021/07/19 11:52:48;;;;;;;;;;;;;;;27.69;80.28;98961.92;1751161;82;20083;-70
2021/07/19 11:55:16;;;;;;;;;;;;;;;27.61;83.06;98968.57;1745761;82;20077;-70
2021/07/19 11:57:45;;;;;;;;;;;;;;;27.55;80.61;98977.76;1751852;82;20159;-70
2021/07/19 12:00:15;;;;;;;;;;;;;;;27.57;79.98;98974.05;1759625;80;21127;-71
2021/07/19 12:02:43;;;;;;;;;;;;;;;27.67;78.67;98971.16;1744511;82;20183;-70
2021/07/19 12:05:15;;;;;;;;;;;;;;;27.92;78.20;98978.84;1724505;82;20404;-71
2021/07/19 12:07:42;;;;;;;;;;;;;;;27.95;75.74;98970.61;1759827;81;20117;-70
2021/07/19 12:10:09;;;;;;;;;;;;;;;28.08;74.22;98971.66;1755196;81;20380;-69
2021/07/19 12:12:36;;;;;;;;;;;;;;;28.33;72.02;98969.81;1759507;81;21104;-70
2021/07/19 12:15:06;;;;;;;;;;;;;;;28.21;74.29;98956.34;1760000;81;20376;-70
2021/07/19 12:17:33;;;;;;;;;;;;;;;28.50;74.37;98952.37;1759809;81;20095;-70
2021/07/19 12:19:59;;;;;;;;;;;;;;;28.74;71.41;98961.91;1755433;81;20126;-68
2021/07/19 12:22:32;;;;;;;;;;;;;;;28.78;71.15;98959.94;1737073;81;20391;-69
2021/07/19 12:24:57;;;;;;;;;;;;;;;28.70;71.48;98951.44;1724551;83;21130;-69
2021/07/19 12:27:25;;;;;;;;;;;;;;;28.70;72.33;98952.83;1724528;83;20113;-68
2021/07/19 12:29:53;;;;;;;;;;;;;;;28.82;72.99;98946.34;1707201;83;20125;-70
2021/07/19 12:32:34;;;;;;;;;;;;;;;28.74;69.15;98946.73;1754905;81;20082;-70
2021/07/19 12:35:07;;;;;;;;;;;;;;;28.91;71.18;98941.02;1728428;81;20219;-68
2021/07/19 12:37:56;;;;;;;;;;;;;;;28.94;69.67;98943.02;1716259;82;21183;-69
2021/07/19 12:40:24;;;;;;;;;;;;;;;28.58;67.88;98941.55;1670446;84;20103;-69
2021/07/19 12:43:02;;;;;;;;;;;;;;;28.48;68.24;98935.41;1706051;82;20110;-69
2021/07/19 12:45:46;;;;;;;;;;;;;;;28.56;66.69;98935.62;1729899;81;20129;-69
2021/07/19 12:48:15;;;;;;;;;;;;;;;28.62;67.50;98935.45;1727857;82;20456;-70
2021/07/19 12:50:52;;;;;;;;;;;;;;;28.69;67.74;98936.85;1724905;83;20131;-69
2021/07/19 12:53:34;;;;;;;;;;;;;;;28.55;70.06;98928.52;1728985;83;20125;-71
2021/07/19 12:56:13;;;;;;;;;;;;;;;28.76;67.09;98923.06;1702246;82;20402;-72
2021/07/19 12:59:44;;;;;;;;;;;;;;;28.79;67.21;98931.94;1669453;86;20572;-70
2021/07/19 13:05:16;;;;;;;;;;;;;;;28.61;61.18;98945.71;1584116;89;21711;-68
2021/07/19 13:07:44;;;;;;;;;;;;;;;28.68;63.44;98937.23;1581003;89;20153;-69
2021/07/19 13:10:20;;;;;;;;;;;;;;;28.68;63.73;98938.61;1582683;88;20219;-69
2021/07/19 13:12:56;;;;;;;;;;;;;;;28.73;61.69;98937.63;1587542;89;20155;-69
2021/07/19 13:18:32;;;;;;;;;;;;;;;28.97;61.17;98938.08;1602778;88;21156;-68
2021/07/19 13:21:06;;;;;;;;;;;;;;;28.62;62.23;98925.19;1604147;89;20197;-68
2021/07/19 13:56:25;;;;;;;;;;;;;;;28.64;62.12;98930.34;1722415;82;20091;-72
2021/07/19 13:59:44;;;;;;;;;;;;;;;28.86;60.52;98922.89;1702818;82;20173;-72
2021/07/19 14:02:55;;;;;;;;;;;;;;;28.96;56.96;98926.84;1703587;83;20138;-71
2021/07/19 14:06:08;;;;;;;;;;;;;;;29.20;56.11;98923.34;1641857;85;20180;-72
2021/07/19 14:12:50;;;;;;;;;;;;;;;29.50;56.54;98920.77;1451028;97;20284;-71
2021/07/19 14:16:00;;;;;;;;;;;;;;;29.43;55.53;98915.23;1375462;103;20205;-71
2021/07/19 14:22:49;;;;;;;;;;;;;;;29.63;56.69;98908.69;1361174;104;20202;-70
2021/07/19 14:25:34;;;;;;;;;;;;;;;29.52;57.78;98908.72;1359215;105;21811;-70
2021/07/19 14:28:13;;;;;;;;;;;;;;;29.48;57.75;98905.16;1359255;104;20242;-71
2021/07/19 14:30:59;;;;;;;;;;;;;;;29.51;58.05;98902.98;1370568;102;20241;-71
2021/07/19 14:33:30;;;;;;;;;;;;;;;29.41;58.46;98906.55;1362233;104;20569;-71
2021/07/19 14:35:57;;;;;;;;;;;;;;;29.01;59.07;98901.00;1359136;104;20501;-71
2021/07/19 14:39:05;;;;;;;;;;;;;;;28.79;60.68;98898.80;1358452;104;22377;-71
2021/07/19 15:23:28;;;;;;;;;;;;;;;28.96;61.32;98869.62;1696562;83;20263;-72
2021/07/19 15:26:03;;;;;;;;;;;;;;;29.06;59.92;98863.94;1669480;86;20438;-71
2021/07/19 15:28:42;;;;;;;;;;;;;;;29.19;61.39;98864.31;1666477;86;20165;-71
2021/07/19 15:31:14;;;;;;;;;;;;;;;29.25;61.12;98868.25;1664414;86;21121;-71
2021/07/19 15:33:46;;;;;;;;;;;;;;;29.06;60.57;98879.13;1643549;86;20202;-70
2021/07/19 15:36:13;;;;;;;;;;;;;;;29.08;61.00;98878.14;1663579;85;20359;-70
2021/07/19 15:38:39;;;;;;;;;;;;;;;29.33;59.03;98874.58;1662341;85;20117;-72
2021/07/19 15:41:29;;;;;;;;;;;;;;;29.40;57.93;98876.73;1669017;84;20434;-72
2021/07/19 15:47:40;;;;;;;;;;;;;;;29.27;59.31;98865.88;1629867;87;20123;-72
2021/07/19 15:50:25;;;;;;;;;;;;;;;29.34;61.03;98873.38;1654799;86;20179;-72
2021/07/19 15:53:07;;;;;;;;;;;;;;;29.24;60.06;98875.75;1633284;87;20369;-72
2021/07/19 15:58:51;;;;;;;;;;;;;;;29.02;59.27;98876.32;1549710;91;21680;-72
2021/07/19 16:01:34;;;;;;;;;;;;;;;28.80;60.63;98882.42;1506053;94;20354;-73
2021/07/19 16:04:28;;;;;;;;;;;;;;;28.68;62.24;98883.39;1498667;93;20349;-72
2021/07/19 16:07:24;;;;;;;;;;;;;;;28.50;61.32;98879.22;1466282;96;20669;-71
2021/07/19 16:10:00;;;;;;;;;;;;;;;28.50;63.12;98885.53;1465343;96;20234;-71
2021/07/19 16:12:27;;;;;;;;;;;;;;;28.68;61.64;98890.30;1466285;96;21161;-70
2021/07/19 16:14:55;;;;;;;;;;;;;;;28.66;61.27;98889.30;1466096;96;20760;-69
2021/07/19 16:17:21;;;;;;;;;;;;;;;28.75;59.70;98900.76;1466288;96;20251;-69
2021/07/19 16:19:48;;;;;;;;;;;;;;;28.80;60.17;98900.37;1466588;98;20175;-69
2021/07/19 17:30:10;;;;;;;;;;;;;;;;;;;;;
2021/07/19 17:44:03;;;;;;;;;;;;;;;23.75;100.00;98874.44;1604633;87;20228;-73
2021/07/19 18:30:43;;;;;;;;;;;;;;;21.71;100.00;98923.72;1698224;83;94508;-73
2021/07/19 18:33:11;;;;;;;;;;;;;;;21.61;100.00;98926.92;1666690;86;20728;-73
2021/07/19 18:39:25;;;;;;;;;;;;;;;21.54;100.00;98937.05;1664374;86;20176;-73
2021/07/19 18:42:12;;;;;;;;;;;;;;;21.47;100.00;98934.09;1662741;86;20468;-74
2021/07/19 18:44:53;;;;;;;;;;;;;;;21.43;100.00;98945.45;1597353;89;20220;-74
2021/07/19 18:47:28;;;;;;;;;;;;;;;21.35;100.00;98944.39;1604276;89;21809;-73
2021/07/19 18:50:22;;;;;;;;;;;;;;;21.30;100.00;98941.89;1608898;87;20229;-75
2021/07/19 18:56:22;;;;;;;;;;;;;;;21.27;100.00;98933.60;1554143;90;20198;-73
2021/07/19 18:59:09;;;;;;;;;;;;;;;21.19;100.00;98936.09;1559412;92;20280;-70
2021/07/19 19:01:39;;;;;;;;;;;;;;;21.12;100.00;98937.22;1550925;90;21606;-73
2021/07/19 19:04:49;;;;;;;;;;;;;;;21.06;100.00;98941.28;1555107;90;20262;-73
2021/07/19 19:07:44;;;;;;;;;;;;;;;21.07;100.00;98947.53;1550819;90;20384;-75
2021/07/19 19:10:31;;;;;;;;;;;;;;;21.05;100.00;98945.73;1524751;92;20609;-75
2021/07/19 19:31:46;;;;;;;;;;;;;;;20.79;100.00;98934.52;1438230;98;20500;-73
2021/07/19 19:42:12;;;;;;;;;;;;;;;20.69;100.00;98943.13;1372793;103;20130;-73
2021/07/19 19:48:21;;;;;;;;;;;;;;;20.48;100.00;98948.03;1329157;105;20242;-73
2021/07/19 19:51:17;;;;;;;;;;;;;;;20.44;100.00;98944.94;1332741;105;21376;-74
2021/07/19 19:54:28;;;;;;;;;;;;;;;20.41;100.00;98943.67;1336624;105;20286;-73
2021/07/19 19:57:25;;;;;;;;;;;;;;;20.50;100.00;98939.50;1330789;107;20261;-73
2021/07/19 20:00:47;;;;;;;;;;;;;;;20.57;100.00;98948.53;1332812;106;20201;-73
2021/07/19 20:03:16;;;;;;;;;;;;;;;20.55;100.00;98940.68;1332199;105;20261;-74
2021/07/19 20:09:27;;;;;;;;;;;;;;;20.67;100.00;98933.91;1335335;105;20198;-72